createdAt,value
2023-10-03T00:00:34.884Z,4.10
2023-10-03T00:04:14.304Z,4.90
2023-10-03T00:07:16.281Z,4.50
2023-10-03T00:10:19.925Z,4.70
2023-10-03T00:13:22.532Z,4.40
2023-10-03T00:16:24.411Z,4.00
2023-10-03T00:19:26.313Z,4.90
2023-10-03T00:22:28.419Z,4.20
2023-10-03T00:25:31.160Z,4.40
2023-10-03T00:28:34.300Z,4.90
2023-10-03T00:31:36.328Z,5.40
2023-10-03T00:34:57.180Z,5.30
2023-10-03T00:38:35.970Z,5.00
2023-10-03T00:41:38.162Z,5.30
2023-10-03T00:44:40.279Z,5.90
2023-10-03T00:47:42.319Z,4.60
2023-10-03T00:50:45.536Z,5.90
2023-10-03T00:53:51.452Z,5.20
2023-10-03T00:56:53.531Z,5.60
2023-10-03T00:59:59.383Z,5.30
2023-10-03T01:03:01.484Z,5.10
2023-10-03T01:06:12.985Z,5.20
2023-10-03T01:09:23.594Z,5.10
2023-10-03T01:12:26.310Z,5.20
2023-10-03T01:15:29.326Z,4.60
2023-10-03T01:18:32.533Z,5.00
2023-10-03T01:21:35.496Z,5.40
2023-10-03T01:24:39.076Z,4.80
2023-10-03T01:27:40.929Z,5.10
2023-10-03T01:30:43.040Z,6.10
2023-10-03T01:33:46.904Z,5.70
2023-10-03T01:36:48.776Z,6.00
2023-10-03T01:39:50.731Z,5.90
2023-10-03T01:42:52.805Z,5.90
2023-10-03T01:45:55.624Z,5.30
2023-10-03T01:48:57.689Z,5.50
2023-10-03T01:51:59.549Z,5.60
2023-10-03T01:55:01.562Z,5.20
2023-10-03T01:58:04.862Z,5.70
2023-10-03T02:01:06.816Z,5.30
2023-10-03T02:04:08.951Z,5.40
2023-10-03T02:07:12.462Z,5.10
2023-10-03T02:10:14.986Z,6.00
2023-10-03T02:13:19.012Z,4.90
2023-10-03T02:16:22.912Z,5.20
2023-10-03T02:19:25.035Z,5.40
2023-10-03T02:22:26.954Z,5.80
2023-10-03T02:25:29.775Z,4.80
2023-10-03T02:28:34.135Z,5.60
2023-10-03T02:31:38.136Z,5.30
2023-10-03T02:34:40.290Z,5.20
2023-10-03T02:37:42.780Z,4.90
2023-10-03T02:40:44.779Z,5.30
2023-10-03T02:43:47.668Z,5.80
2023-10-03T02:46:56.022Z,5.50
2023-10-03T02:49:59.571Z,5.10
2023-10-03T02:53:12.103Z,5.10
2023-10-03T02:56:14.659Z,5.10
2023-10-03T02:59:16.812Z,5.50
2023-10-03T03:02:18.798Z,5.00
2023-10-03T03:05:23.622Z,5.20
2023-10-03T03:08:29.352Z,4.90
2023-10-03T03:11:32.559Z,5.30
2023-10-03T03:14:34.561Z,5.50
2023-10-03T03:17:36.849Z,5.10
2023-10-03T03:20:42.926Z,5.20
2023-10-03T03:24:01.197Z,5.50
2023-10-03T03:27:11.827Z,5.70
2023-10-03T03:30:28.800Z,5.40
2023-10-03T03:33:31.956Z,5.00
2023-10-03T03:36:35.416Z,5.10
2023-10-03T03:39:37.350Z,5.70
2023-10-03T03:42:39.328Z,5.50
2023-10-03T03:45:41.596Z,5.40
2023-10-03T03:48:43.605Z,5.20
2023-10-03T03:51:45.745Z,5.80
2023-10-03T03:54:50.116Z,5.10
2023-10-03T03:57:52.529Z,5.60
2023-10-03T04:00:55.528Z,4.70
2023-10-03T04:04:00.037Z,5.00
2023-10-03T04:07:02.888Z,4.40
2023-10-03T04:10:14.334Z,4.90
2023-10-03T04:13:18.062Z,5.10
2023-10-03T04:16:22.453Z,5.40
2023-10-03T04:19:24.379Z,5.00
2023-10-03T04:22:29.320Z,5.40
2023-10-03T04:25:33.177Z,5.50
2023-10-03T04:28:35.716Z,5.20
2023-10-03T04:31:38.040Z,5.20
2023-10-03T04:34:39.922Z,5.20
2023-10-03T04:37:45.093Z,4.70
2023-10-03T04:40:48.192Z,5.30
2023-10-03T04:43:50.470Z,6.00
2023-10-03T04:46:52.343Z,5.40
2023-10-03T04:50:00.450Z,5.20
2023-10-03T04:53:03.432Z,4.90
2023-10-03T04:56:05.337Z,5.30
2023-10-03T04:59:08.304Z,4.50
2023-10-03T05:02:11.767Z,5.10
2023-10-03T05:05:24.737Z,4.90
2023-10-03T05:08:26.742Z,5.90
2023-10-03T05:11:30.345Z,6.00
2023-10-03T05:14:33.188Z,5.70
2023-10-03T05:17:36.444Z,5.70
2023-10-03T05:20:38.594Z,5.30
2023-10-03T05:23:41.975Z,5.50
2023-10-03T05:26:43.934Z,5.00
2023-10-03T05:29:46.159Z,5.90
2023-10-03T05:32:48.293Z,4.70
2023-10-03T05:35:50.574Z,4.80
2023-10-03T05:38:52.584Z,5.70
2023-10-03T05:41:57.717Z,5.30
2023-10-03T05:44:59.750Z,4.90
2023-10-03T05:48:03.791Z,4.90
2023-10-03T05:51:08.690Z,4.90
2023-10-03T05:54:10.700Z,5.10
2023-10-03T05:57:12.582Z,5.00
2023-10-03T06:00:21.859Z,5.10
2023-10-03T06:03:23.916Z,5.00
2023-10-03T06:06:29.469Z,4.50
2023-10-03T06:09:31.359Z,4.40
2023-10-03T06:12:33.321Z,4.40
2023-10-03T06:15:37.027Z,4.40
2023-10-03T06:18:42.303Z,4.10
2023-10-03T06:21:44.558Z,3.90
2023-10-03T06:24:47.518Z,4.30
2023-10-03T06:27:49.443Z,3.90
2023-10-03T06:30:52.959Z,3.80
2023-10-03T06:33:55.148Z,4.30
2023-10-03T06:36:57.291Z,5.10
2023-10-03T06:39:59.189Z,4.10
2023-10-03T06:43:01.220Z,4.30
2023-10-03T06:46:06.414Z,4.10
2023-10-03T06:49:11.173Z,4.30
2023-10-03T06:52:13.128Z,4.20
2023-10-03T06:55:16.406Z,4.30
2023-10-03T06:58:18.379Z,4.20
2023-10-03T07:01:20.309Z,4.70
2023-10-03T07:04:22.359Z,4.30
2023-10-03T07:07:24.481Z,3.80
2023-10-03T07:10:26.662Z,3.80
2023-10-03T07:13:29.658Z,4.90
2023-10-03T07:16:38.745Z,4.10
2023-10-03T07:19:41.480Z,4.00
2023-10-03T07:22:43.464Z,4.60
2023-10-03T07:25:45.535Z,4.20
2023-10-03T07:28:47.619Z,4.10
2023-10-03T07:31:49.514Z,4.20
2023-10-03T07:34:51.446Z,4.20
2023-10-03T07:37:53.345Z,4.10
2023-10-03T07:40:55.423Z,4.10
2023-10-03T07:43:57.332Z,4.00
2023-10-03T07:46:59.310Z,4.20
2023-10-03T07:50:01.428Z,4.10
2023-10-03T07:53:11.734Z,4.70
2023-10-03T07:56:30.598Z,4.80
2023-10-03T07:59:32.980Z,4.00
2023-10-03T08:02:35.151Z,4.80
2023-10-03T08:05:38.263Z,4.30
2023-10-03T08:08:40.220Z,3.70
2023-10-03T08:11:46.806Z,4.50
2023-10-03T08:14:52.529Z,4.60
2023-10-03T08:17:56.934Z,4.20
2023-10-03T08:24:10.346Z,4.60
2023-10-03T08:27:19.176Z,3.70
2023-10-03T08:30:28.956Z,4.10
2023-10-03T08:33:37.034Z,4.50
2023-10-03T08:36:39.061Z,4.50
2023-10-03T08:39:41.294Z,4.40
2023-10-03T08:42:44.853Z,4.30
2023-10-03T08:45:53.379Z,5.10
2023-10-03T08:49:01.348Z,4.30
2023-10-03T08:52:06.800Z,4.40
2023-10-03T08:55:09.931Z,4.00
2023-10-03T08:58:13.847Z,4.70
2023-10-03T09:01:20.063Z,4.50
2023-10-03T09:04:24.009Z,4.40
2023-10-03T09:07:26.026Z,4.20
2023-10-03T09:10:31.883Z,4.60
2023-10-03T09:13:34.630Z,4.60
2023-10-03T09:16:39.310Z,4.90
2023-10-03T09:19:44.728Z,4.50
2023-10-03T09:22:47.504Z,4.40
2023-10-03T09:25:56.340Z,4.50
2023-10-03T09:28:59.261Z,4.80
2023-10-03T09:32:13.528Z,4.20
2023-10-03T09:35:15.725Z,4.40
2023-10-03T09:38:21.884Z,5.30
2023-10-03T09:41:26.858Z,4.40
2023-10-03T09:44:31.967Z,5.10
2023-10-03T09:47:38.388Z,4.70
2023-10-03T09:50:52.354Z,5.10
2023-10-03T09:53:57.282Z,4.50
2023-10-03T09:57:01.389Z,5.60
2023-10-03T10:00:24.058Z,4.40
2023-10-03T10:03:33.902Z,5.50
2023-10-03T10:07:00.179Z,5.30
2023-10-03T10:10:10.570Z,4.30
2023-10-03T10:13:21.510Z,4.30
2023-10-03T10:16:24.496Z,5.10
2023-10-03T10:20:06.109Z,4.50
2023-10-03T10:23:11.997Z,3.90
2023-10-03T10:26:31.533Z,4.40
2023-10-03T10:29:36.344Z,4.40
2023-10-03T10:32:38.983Z,4.70
2023-10-03T10:36:10.962Z,4.40
2023-10-03T10:39:13.830Z,4.80
2023-10-03T10:42:16.689Z,3.80
2023-10-03T10:45:21.416Z,4.90
2023-10-03T10:48:41.513Z,4.40
2023-10-03T10:51:55.985Z,4.30
2023-10-03T10:54:59.753Z,4.10
2023-10-03T10:58:10.418Z,4.20
2023-10-03T11:01:13.992Z,4.10
2023-10-03T11:04:26.665Z,4.00
2023-10-03T11:07:30.079Z,4.00
2023-10-03T11:10:35.781Z,4.40
2023-10-03T11:13:46.584Z,3.80
2023-10-03T11:16:48.619Z,4.30
2023-10-03T11:19:51.804Z,4.00
2023-10-03T11:22:55.527Z,4.60
2023-10-03T11:25:58.624Z,3.60
2023-10-03T11:29:00.638Z,4.40
2023-10-03T11:32:04.382Z,3.90
2023-10-03T11:35:21.519Z,4.30
2023-10-03T11:38:23.492Z,4.10
2023-10-03T11:41:35.114Z,4.10
2023-10-03T11:44:37.911Z,3.40
2023-10-03T11:47:40.477Z,3.80
2023-10-03T11:50:43.529Z,3.70
2023-10-03T11:53:46.304Z,3.80
2023-10-03T11:56:48.672Z,3.70
2023-10-03T11:59:50.786Z,3.60
2023-10-03T12:02:53.318Z,3.80
2023-10-03T12:05:57.666Z,3.70
2023-10-03T12:08:59.643Z,3.90
2023-10-03T12:12:01.845Z,3.30
2023-10-03T12:15:12.725Z,4.10
2023-10-03T12:18:16.126Z,3.60
2023-10-03T12:21:18.653Z,3.60
2023-10-03T12:24:20.943Z,3.30
2023-10-03T12:27:22.986Z,3.40
2023-10-03T12:30:25.754Z,3.20
2023-10-03T12:33:29.106Z,3.40
2023-10-03T12:36:34.625Z,3.20
2023-10-03T12:39:36.670Z,3.40
2023-10-03T12:42:41.524Z,3.40
2023-10-03T12:45:43.532Z,3.90
2023-10-03T12:48:46.334Z,3.80
2023-10-03T12:51:49.144Z,3.20
2023-10-03T12:54:52.209Z,3.50
2023-10-03T12:58:04.090Z,3.30
2023-10-03T13:01:06.098Z,3.30
2023-10-03T13:04:08.273Z,3.40
2023-10-03T13:07:12.480Z,3.60
2023-10-03T13:10:15.953Z,3.80
2023-10-03T13:13:17.847Z,3.90
2023-10-03T13:16:20.927Z,3.60
2023-10-03T13:22:28.072Z,3.30
2023-10-03T13:25:30.074Z,3.60
2023-10-03T13:28:32.532Z,3.70
2023-10-03T13:31:36.687Z,3.40
2023-10-03T13:40:44.010Z,3.30
2023-10-03T13:43:45.929Z,3.90
2023-10-03T13:46:47.930Z,3.40
2023-10-03T13:49:50.098Z,3.90
2023-10-03T13:52:55.447Z,3.30
2023-10-03T13:55:59.466Z,3.70
2023-10-03T13:59:03.402Z,3.50
2023-10-03T14:02:05.877Z,3.50
2023-10-03T14:05:10.496Z,3.70
2023-10-03T14:08:12.522Z,3.60
2023-10-03T14:11:21.632Z,3.40
2023-10-03T14:14:24.300Z,3.70
2023-10-03T14:17:26.413Z,3.60
2023-10-03T14:20:29.223Z,3.70
2023-10-03T14:23:32.313Z,4.00
2023-10-03T14:26:35.357Z,3.90
2023-10-03T14:29:38.027Z,4.30
2023-10-03T14:32:43.357Z,3.20
2023-10-03T14:35:46.467Z,3.90
2023-10-03T14:38:49.369Z,3.60
2023-10-03T14:41:52.334Z,3.90
2023-10-03T14:44:54.261Z,3.90
2023-10-03T14:47:59.567Z,3.90
2023-10-03T14:51:02.235Z,4.00
2023-10-03T14:54:05.153Z,3.80
2023-10-03T14:57:07.119Z,3.60
2023-10-03T15:00:09.990Z,3.80
2023-10-03T15:03:12.007Z,3.70
2023-10-03T15:06:14.183Z,4.20
2023-10-03T15:09:16.085Z,4.00
2023-10-03T15:12:19.033Z,4.40
2023-10-03T15:15:21.144Z,3.50
2023-10-03T15:18:25.032Z,4.00
2023-10-03T15:21:27.213Z,3.90
2023-10-03T15:24:30.677Z,3.70
2023-10-03T15:27:34.189Z,3.80
2023-10-03T15:30:43.215Z,3.50
2023-10-03T15:33:46.044Z,4.50
2023-10-03T15:36:48.524Z,4.10
2023-10-03T15:39:52.400Z,4.50
2023-10-03T15:42:55.273Z,3.40
2023-10-03T15:46:00.879Z,4.00
2023-10-03T15:49:03.414Z,4.10
2023-10-03T15:52:05.638Z,3.90
2023-10-03T15:55:13.303Z,3.50
2023-10-03T15:58:15.274Z,3.90
2023-10-03T16:01:17.520Z,4.10
2023-10-03T16:04:19.910Z,4.10
2023-10-03T16:07:21.931Z,3.60
2023-10-03T16:10:24.313Z,4.00
2023-10-03T16:13:26.255Z,4.30
2023-10-03T16:16:28.303Z,4.40
2023-10-03T16:19:31.366Z,3.90
2023-10-03T16:22:34.192Z,3.70
2023-10-03T16:25:38.786Z,4.40
2023-10-03T16:28:40.761Z,4.00
2023-10-03T16:31:42.759Z,3.80
2023-10-03T16:34:44.735Z,4.00
2023-10-03T16:37:46.630Z,4.60
2023-10-03T16:40:48.919Z,3.80
2023-10-03T16:43:50.932Z,4.30
2023-10-03T16:46:53.899Z,4.20
2023-10-03T16:49:56.539Z,3.80
2023-10-03T16:52:58.560Z,4.00
2023-10-03T16:56:01.118Z,4.40
2023-10-03T16:59:03.881Z,4.30
2023-10-03T17:02:05.994Z,4.60
2023-10-03T17:05:16.125Z,4.70
2023-10-03T17:08:18.381Z,4.30
2023-10-03T17:11:20.782Z,3.80
2023-10-03T17:14:22.665Z,3.90
2023-10-03T17:17:24.574Z,4.60
2023-10-03T17:20:26.627Z,3.90
2023-10-03T17:23:29.957Z,4.70
2023-10-03T17:26:33.369Z,4.70
2023-10-03T17:29:35.484Z,4.60
2023-10-03T17:32:38.017Z,5.10
2023-10-03T17:35:39.981Z,4.80
2023-10-03T17:38:41.879Z,5.40
2023-10-03T17:41:43.835Z,4.60
2023-10-03T17:44:48.609Z,4.70
2023-10-03T17:47:50.690Z,4.40
2023-10-03T17:50:52.835Z,4.40
2023-10-03T17:53:55.578Z,4.30
2023-10-03T17:56:57.831Z,4.50
2023-10-03T18:00:06.838Z,4.20
2023-10-03T18:03:09.183Z,4.90
2023-10-03T18:06:11.434Z,4.90
2023-10-03T18:09:15.492Z,4.60
2023-10-03T18:12:18.039Z,5.20
2023-10-03T18:15:20.114Z,6.10
2023-10-03T18:18:22.279Z,5.90
2023-10-03T18:21:24.542Z,5.00
2023-10-03T18:24:27.758Z,4.90
2023-10-03T18:27:30.274Z,4.90
2023-10-03T18:30:33.175Z,5.00
2023-10-03T18:33:35.312Z,5.60
2023-10-03T18:36:37.414Z,6.00
2023-10-03T18:39:39.337Z,5.60
2023-10-03T18:42:41.272Z,5.50
2023-10-03T18:45:55.664Z,5.80
2023-10-03T18:48:59.739Z,6.10
2023-10-03T18:52:02.034Z,6.20
2023-10-03T18:55:04.177Z,5.80
2023-10-03T18:58:06.045Z,5.80
2023-10-03T19:01:16.604Z,7.10
2023-10-03T19:04:20.479Z,6.10
2023-10-03T19:07:22.589Z,6.70
2023-10-03T19:10:24.487Z,6.70
2023-10-03T19:13:27.997Z,6.60
2023-10-03T19:16:30.003Z,5.90
2023-10-03T19:19:37.444Z,6.90
2023-10-03T19:22:39.511Z,7.60
2023-10-03T19:25:41.723Z,6.70
2023-10-03T19:28:43.861Z,7.60
2023-10-03T19:31:45.873Z,7.50
2023-10-03T19:34:48.450Z,6.70
2023-10-03T19:37:50.468Z,7.40
2023-10-03T19:40:52.332Z,6.90
2023-10-03T19:43:57.229Z,6.80
2023-10-03T19:47:01.493Z,6.80
2023-10-03T19:53:06.996Z,6.60
2023-10-03T19:56:11.845Z,7.30
2023-10-03T19:59:13.766Z,7.10
2023-10-03T20:02:16.119Z,6.80
2023-10-03T20:05:17.991Z,7.40
2023-10-03T20:08:19.890Z,7.50
2023-10-03T20:11:21.821Z,7.50
2023-10-03T20:14:24.658Z,6.60
2023-10-03T20:17:26.530Z,6.80
2023-10-03T20:20:29.674Z,7.00
2023-10-03T20:23:33.650Z,6.20
2023-10-03T20:26:35.545Z,7.00
2023-10-03T20:29:37.403Z,6.80
2023-10-03T20:32:40.813Z,7.50
2023-10-03T20:35:42.782Z,6.40
2023-10-03T20:38:44.765Z,6.50
2023-10-03T20:41:47.133Z,6.50
2023-10-03T20:44:49.153Z,6.70
2023-10-03T20:47:51.422Z,7.30
2023-10-03T20:50:53.426Z,6.10
2023-10-03T20:53:55.356Z,6.30
2023-10-03T20:56:57.382Z,5.60
2023-10-03T21:00:00.322Z,6.00
2023-10-03T21:03:02.474Z,7.60
2023-10-03T21:06:05.245Z,6.20
2023-10-03T21:09:11.870Z,5.90
2023-10-03T21:12:13.794Z,6.40
2023-10-03T21:15:16.849Z,6.00
2023-10-03T21:18:19.470Z,6.20
2023-10-03T21:21:21.531Z,5.50
2023-10-03T21:24:24.093Z,6.50
2023-10-03T21:27:27.269Z,5.50
2023-10-03T21:30:29.335Z,6.00
2023-10-03T21:33:31.455Z,6.20
2023-10-03T21:36:33.499Z,6.00
2023-10-03T21:39:35.583Z,5.70
2023-10-03T21:42:41.215Z,5.80
2023-10-03T21:45:43.572Z,5.20
2023-10-03T21:48:45.588Z,5.30
2023-10-03T21:51:48.080Z,6.40
2023-10-03T21:54:51.736Z,4.60
2023-10-03T21:57:54.555Z,5.10
2023-10-03T22:00:59.369Z,4.70
2023-10-03T22:04:01.941Z,5.80
2023-10-03T22:07:04.374Z,5.30
2023-10-03T22:10:09.863Z,6.20
2023-10-03T22:13:12.961Z,4.20
2023-10-03T22:16:16.629Z,4.30
2023-10-03T22:19:21.342Z,3.30
2023-10-03T22:22:23.946Z,3.20
2023-10-03T22:25:26.109Z,3.30
2023-10-03T22:28:28.002Z,3.40
2023-10-03T22:31:30.168Z,3.50
2023-10-03T22:34:33.991Z,4.10
2023-10-03T22:37:36.590Z,4.20
2023-10-03T22:40:40.177Z,5.20
2023-10-03T22:43:42.076Z,3.90
2023-10-03T22:46:44.030Z,4.20
2023-10-03T22:49:45.906Z,4.00
2023-10-03T22:52:48.972Z,3.40
2023-10-03T22:55:52.077Z,3.20
2023-10-03T22:58:54.083Z,2.80
2023-10-03T23:01:56.328Z,3.70
2023-10-03T23:04:58.322Z,3.70
2023-10-03T23:08:00.562Z,4.80
2023-10-03T23:11:03.826Z,3.40
2023-10-03T23:14:05.786Z,3.70
2023-10-03T23:17:07.667Z,3.60
2023-10-03T23:20:11.608Z,3.30
2023-10-03T23:23:13.501Z,4.00
2023-10-03T23:26:15.598Z,4.20
2023-10-03T23:29:17.450Z,3.80
2023-10-03T23:32:19.473Z,4.00
2023-10-03T23:35:21.935Z,3.30
2023-10-03T23:38:24.274Z,3.60
2023-10-03T23:41:28.974Z,3.70
2023-10-03T23:44:31.282Z,3.40
2023-10-03T23:47:35.086Z,3.20
2023-10-03T23:50:37.038Z,3.70
2023-10-03T23:53:38.924Z,3.40
2023-10-03T23:56:43.352Z,4.10
2023-10-03T23:59:45.252Z,3.40
